createdAt,value
2022-08-22T00:00:14.567Z,58.59
2022-08-22T00:02:59.130Z,61.34
2022-08-22T00:03:18.477Z,58.99
2022-08-22T00:06:17.613Z,58.72
2022-08-22T00:08:52.667Z,58.91
2022-08-22T00:11:35.604Z,59.34
2022-08-22T00:14:43.272Z,59.46
2022-08-22T00:17:20.241Z,60.17
2022-08-22T00:20:09.811Z,59.93
2022-08-22T00:22:47.673Z,60.30
2022-08-22T00:25:44.177Z,61.11
2022-08-22T00:28:25.426Z,60.74
2022-08-22T00:31:09.113Z,60.56
2022-08-22T00:33:48.525Z,60.29
2022-08-22T00:36:30.246Z,60.04
2022-08-22T00:39:18.967Z,59.69
2022-08-22T00:42:00.723Z,59.75
2022-08-22T00:44:39.299Z,60.11
2022-08-22T00:47:24.424Z,60.22
2022-08-22T00:49:57.080Z,60.85
2022-08-22T00:52:52.940Z,61.10
2022-08-22T00:55:53.368Z,61.37
2022-08-22T00:58:27.154Z,61.05
2022-08-22T01:00:59.890Z,61.54
2022-08-22T01:03:44.711Z,60.99
2022-08-22T01:06:23.503Z,61.42
2022-08-22T01:09:28.110Z,61.54
2022-08-22T01:11:54.623Z,61.63
2022-08-22T01:14:44.233Z,62.35
2022-08-22T01:17:26.780Z,62.67
2022-08-22T01:20:25.433Z,62.26
2022-08-22T01:23:19.900Z,61.53
2022-08-22T01:26:24.082Z,60.99
2022-08-22T01:29:15.040Z,61.39
2022-08-22T01:32:36.896Z,60.62
2022-08-22T01:35:25.140Z,60.49
2022-08-22T01:38:15.388Z,61.27
2022-08-22T01:41:00.375Z,63.25
2022-08-22T01:43:59.877Z,63.74
2022-08-22T01:46:37.061Z,63.73
2022-08-22T01:49:24.006Z,63.97
2022-08-22T01:51:54.132Z,63.44
2022-08-22T01:54:27.213Z,62.41
2022-08-22T01:57:01.121Z,62.15
2022-08-22T01:59:53.612Z,61.88
2022-08-22T02:02:36.725Z,62.44
2022-08-22T02:05:13.059Z,62.36
2022-08-22T02:07:57.429Z,61.61
2022-08-22T02:10:41.820Z,61.31
2022-08-22T02:13:25.068Z,61.03
2022-08-22T02:16:07.016Z,61.02
2022-08-22T02:18:50.261Z,60.67
2022-08-22T02:21:26.575Z,61.15
2022-08-22T02:24:19.185Z,61.43
2022-08-22T02:27:08.466Z,61.52
2022-08-22T02:29:57.781Z,61.34
2022-08-22T02:32:46.107Z,61.59
2022-08-22T02:35:12.531Z,61.39
2022-08-22T02:37:54.008Z,64.61
2022-08-22T02:40:28.093Z,65.64
2022-08-22T02:43:29.176Z,67.07
2022-08-22T02:46:22.980Z,66.67
2022-08-22T02:49:03.460Z,66.28
2022-08-22T02:52:10.329Z,65.27
2022-08-22T02:54:53.480Z,67.07
2022-08-22T02:57:40.196Z,68.56
2022-08-22T03:00:25.002Z,69.46
2022-08-22T03:02:59.322Z,70.14
2022-08-22T03:05:45.717Z,70.34
2022-08-22T03:08:29.306Z,70.64
2022-08-22T03:11:08.008Z,70.54
2022-08-22T03:13:46.561Z,70.50
2022-08-22T03:16:26.435Z,70.44
2022-08-22T03:19:05.810Z,70.21
2022-08-22T03:21:43.402Z,70.16
2022-08-22T03:24:45.455Z,70.57
2022-08-22T03:27:27.808Z,70.86
2022-08-22T03:30:11.294Z,70.88
2022-08-22T03:32:55.493Z,70.61
2022-08-22T03:35:26.668Z,71.46
2022-08-22T03:38:08.975Z,71.02
2022-08-22T03:41:01.853Z,71.82
2022-08-22T03:43:43.460Z,71.95
2022-08-22T03:46:12.964Z,72.31
2022-08-22T03:49:11.152Z,72.41
2022-08-22T03:52:05.876Z,72.65
2022-08-22T03:55:14.154Z,72.43
2022-08-22T03:57:55.961Z,71.98
2022-08-22T04:00:28.550Z,71.73
2022-08-22T04:03:09.925Z,71.85
2022-08-22T04:05:54.840Z,71.81
2022-08-22T04:08:33.354Z,72.42
2022-08-22T04:11:16.620Z,72.82
2022-08-22T04:13:46.316Z,73.12
2022-08-22T04:16:37.730Z,73.08
2022-08-22T04:19:41.357Z,73.26
2022-08-22T04:22:30.948Z,73.36
2022-08-22T04:25:08.345Z,72.96
2022-08-22T04:27:40.856Z,73.12
2022-08-22T04:30:07.270Z,73.11
2022-08-22T04:32:51.365Z,73.29
2022-08-22T04:35:39.033Z,73.01
2022-08-22T04:38:22.082Z,73.03
2022-08-22T04:40:56.356Z,73.09
2022-08-22T04:43:48.376Z,73.32
2022-08-22T04:46:49.481Z,73.35
2022-08-22T04:49:27.921Z,73.61
2022-08-22T04:52:00.167Z,73.64
2022-08-22T04:54:41.072Z,74.16
2022-08-22T04:57:29.653Z,74.02
2022-08-22T05:00:03.404Z,73.96
2022-08-22T05:02:31.094Z,73.43
2022-08-22T05:05:13.218Z,73.30
2022-08-22T05:07:48.365Z,72.80
2022-08-22T05:10:22.461Z,72.85
2022-08-22T05:13:00.364Z,72.77
2022-08-22T05:15:34.069Z,73.08
2022-08-22T05:18:09.322Z,73.07
2022-08-22T05:20:39.192Z,72.92
2022-08-22T05:23:30.668Z,72.78
2022-08-22T05:26:02.864Z,72.23
2022-08-22T05:28:35.052Z,71.99
2022-08-22T05:31:24.369Z,71.67
2022-08-22T05:33:55.778Z,71.48
2022-08-22T05:36:29.017Z,71.10
2022-08-22T05:39:13.453Z,71.11
2022-08-22T05:41:41.510Z,70.48
2022-08-22T05:44:26.944Z,70.21
2022-08-22T05:47:01.129Z,69.47
2022-08-22T05:49:44.853Z,69.93
2022-08-22T05:52:38.436Z,69.18
2022-08-22T05:55:15.828Z,68.83
2022-08-22T05:57:52.608Z,68.26
2022-08-22T06:00:23.204Z,67.59
2022-08-22T06:03:08.099Z,67.07
2022-08-22T06:05:40.186Z,66.26
2022-08-22T06:08:36.376Z,65.48
2022-08-22T06:11:12.152Z,65.38
2022-08-22T06:13:47.252Z,65.05
2022-08-22T06:16:48.820Z,64.55
2022-08-22T06:19:19.684Z,64.25
2022-08-22T06:21:51.136Z,64.00
2022-08-22T06:24:25.039Z,64.14
2022-08-22T06:26:55.106Z,63.68
2022-08-22T06:29:36.360Z,63.69
2022-08-22T06:32:12.809Z,63.18
2022-08-22T06:34:43.039Z,62.61
2022-08-22T06:37:18.061Z,61.56
2022-08-22T06:39:49.529Z,61.45
2022-08-22T06:42:24.145Z,60.63
2022-08-22T06:44:57.465Z,60.41
2022-08-22T06:47:41.458Z,59.92
2022-08-22T06:50:14.884Z,59.05
2022-08-22T06:53:04.947Z,59.23
2022-08-22T06:55:32.133Z,57.50
2022-08-22T06:58:06.379Z,55.82
2022-08-22T07:00:35.347Z,55.40
2022-08-22T07:03:15.285Z,54.03
2022-08-22T07:05:42.921Z,52.16
2022-08-22T07:08:21.252Z,52.47
2022-08-22T07:10:58.853Z,51.75
2022-08-22T07:13:28.233Z,51.37
2022-08-22T07:16:01.684Z,50.54
2022-08-22T07:18:29.779Z,50.49
2022-08-22T07:21:04.345Z,49.81
2022-08-22T07:23:45.909Z,49.62
2022-08-22T07:26:21.588Z,49.19
2022-08-22T07:29:18.993Z,48.73
2022-08-22T07:32:10.053Z,48.70
2022-08-22T07:35:04.437Z,48.38
2022-08-22T07:37:37.993Z,48.08
2022-08-22T07:40:21.965Z,47.86
2022-08-22T07:42:56.680Z,47.42
2022-08-22T07:45:35.673Z,47.24
2022-08-22T07:48:25.048Z,47.24
2022-08-22T07:51:09.983Z,47.57
2022-08-22T07:54:00.900Z,47.35
2022-08-22T07:56:32.313Z,47.10
2022-08-22T07:59:10.003Z,46.44
2022-08-22T08:01:45.778Z,46.01
2022-08-22T08:04:17.255Z,46.04
2022-08-22T08:06:46.452Z,46.36
2022-08-22T08:09:15.586Z,46.90
2022-08-22T08:11:44.882Z,45.73
2022-08-22T08:14:14.305Z,45.52
2022-08-22T08:17:00.838Z,45.94
2022-08-22T08:19:30.717Z,45.67
2022-08-22T08:21:59.270Z,45.73
2022-08-22T08:24:31.490Z,45.41
2022-08-22T08:27:30.424Z,45.03
2022-08-22T08:30:15.571Z,44.31
2022-08-22T08:32:48.116Z,44.16
2022-08-22T08:35:28.482Z,44.33
2022-08-22T08:38:07.712Z,44.43
2022-08-22T08:40:34.221Z,44.79
2022-08-22T08:43:36.447Z,44.68
2022-08-22T08:46:38.547Z,44.61
2022-08-22T08:49:29.442Z,44.26
2022-08-22T08:52:10.790Z,44.52
2022-08-22T08:54:55.499Z,44.60
2022-08-22T08:57:30.976Z,43.86
2022-08-22T09:00:14.719Z,43.98
2022-08-22T09:03:11.689Z,43.54
2022-08-22T09:05:54.441Z,44.04
2022-08-22T09:08:35.930Z,43.99
2022-08-22T09:11:40.688Z,44.25
2022-08-22T09:14:29.465Z,43.06
2022-08-22T09:17:14.798Z,43.14
2022-08-22T09:19:53.130Z,42.92
2022-08-22T09:22:33.442Z,42.46
2022-08-22T09:25:38.434Z,42.08
2022-08-22T09:28:06.718Z,41.92
2022-08-22T09:30:54.256Z,41.26
2022-08-22T09:33:24.749Z,40.96
2022-08-22T09:36:12.278Z,40.55
2022-08-22T09:38:51.392Z,40.41
2022-08-22T09:41:46.029Z,41.02
2022-08-22T09:45:19.346Z,40.70
2022-08-22T09:48:30.715Z,40.88
2022-08-22T09:51:34.100Z,39.95
2022-08-22T09:54:08.321Z,40.19
2022-08-22T09:56:42.344Z,39.44
2022-08-22T09:59:20.436Z,39.35
2022-08-22T10:01:59.078Z,39.07
2022-08-22T10:04:43.774Z,39.66
2022-08-22T10:07:16.105Z,39.27
2022-08-22T10:10:01.261Z,39.32
2022-08-22T10:12:36.123Z,39.27
2022-08-22T10:15:11.930Z,39.46
2022-08-22T10:17:48.517Z,38.42
2022-08-22T10:20:28.552Z,38.34
2022-08-22T10:23:45.960Z,38.70
2022-08-22T10:26:22.593Z,37.25
2022-08-22T10:29:05.091Z,38.06
2022-08-22T10:31:58.531Z,37.85
2022-08-22T10:34:36.327Z,38.02
2022-08-22T10:37:44.219Z,37.95
2022-08-22T10:40:22.472Z,37.41
2022-08-22T10:43:00.112Z,37.68
2022-08-22T10:45:36.930Z,37.82
2022-08-22T10:48:08.808Z,36.71
2022-08-22T10:50:50.588Z,36.79
2022-08-22T10:53:35.409Z,37.05
2022-08-22T10:56:21.347Z,35.68
2022-08-22T10:59:04.303Z,35.07
2022-08-22T11:01:41.986Z,35.02
2022-08-22T11:04:55.408Z,34.56
2022-08-22T11:07:48.558Z,34.80
2022-08-22T11:10:43.086Z,34.71
2022-08-22T11:13:26.389Z,33.77
2022-08-22T11:16:04.960Z,33.49
2022-08-22T11:18:34.881Z,32.43
2022-08-22T11:21:29.164Z,32.93
2022-08-22T11:24:34.610Z,32.78
2022-08-22T11:27:38.109Z,32.30
2022-08-22T11:30:24.064Z,32.13
2022-08-22T11:32:59.406Z,32.27
2022-08-22T11:35:36.859Z,33.40
2022-08-22T11:38:18.543Z,32.39
2022-08-22T11:40:59.649Z,31.54
2022-08-22T11:43:35.648Z,31.30
2022-08-22T11:46:25.540Z,31.09
2022-08-22T11:49:16.836Z,30.49
2022-08-22T11:52:00.595Z,31.11
2022-08-22T11:55:08.945Z,31.00
2022-08-22T11:57:44.364Z,30.73
2022-08-22T12:00:29.873Z,31.25
2022-08-22T12:03:35.433Z,31.00
2022-08-22T12:06:20.990Z,30.44
2022-08-22T12:08:49.432Z,30.56
2022-08-22T12:11:18.665Z,30.45
2022-08-22T12:14:06.242Z,29.81
2022-08-22T12:16:39.296Z,29.97
2022-08-22T12:20:05.812Z,29.51
2022-08-22T12:22:55.428Z,30.18
2022-08-22T12:25:35.206Z,31.39
2022-08-22T12:28:28.579Z,31.28
2022-08-22T12:31:28.500Z,31.40
2022-08-22T12:34:02.353Z,31.06
2022-08-22T12:36:35.704Z,30.46
2022-08-22T12:39:23.209Z,30.53
2022-08-22T12:41:50.586Z,30.63
2022-08-22T12:44:35.569Z,30.15
2022-08-22T12:47:24.944Z,29.79
2022-08-22T12:50:00.396Z,29.38
2022-08-22T12:52:45.750Z,29.17
2022-08-22T12:55:32.272Z,29.12
2022-08-22T12:58:34.030Z,28.98
2022-08-22T13:01:06.882Z,28.06
2022-08-22T13:03:41.137Z,28.26
2022-08-22T13:06:49.976Z,27.60
2022-08-22T13:09:28.809Z,27.30
2022-08-22T13:12:06.041Z,27.84
2022-08-22T13:14:34.193Z,27.18
2022-08-22T13:17:23.734Z,27.84
2022-08-22T13:20:03.317Z,28.11
2022-08-22T13:22:34.833Z,27.11
2022-08-22T13:25:14.311Z,26.47
2022-08-22T13:27:51.351Z,25.81
2022-08-22T13:30:34.605Z,26.73
2022-08-22T13:33:22.340Z,25.78
2022-08-22T13:35:53.230Z,25.39
2022-08-22T13:38:26.307Z,26.22
2022-08-22T13:40:56.767Z,25.90
2022-08-22T13:44:04.764Z,24.94
2022-08-22T13:46:35.454Z,24.78
2022-08-22T13:49:07.148Z,23.89
2022-08-22T13:51:46.417Z,24.12
2022-08-22T13:54:16.122Z,25.14
2022-08-22T13:56:56.472Z,25.23
2022-08-22T13:59:51.093Z,24.66
2022-08-22T14:02:30.794Z,24.66
2022-08-22T14:05:05.292Z,24.98
2022-08-22T14:07:47.681Z,25.78
2022-08-22T14:10:25.720Z,26.17
2022-08-22T14:12:57.380Z,26.28
2022-08-22T14:15:45.694Z,27.22
2022-08-22T14:18:31.560Z,27.04
2022-08-22T14:22:06.040Z,27.32
2022-08-22T14:24:45.633Z,27.59
2022-08-22T14:27:28.800Z,27.73
2022-08-22T14:30:12.013Z,27.27
2022-08-22T14:32:58.836Z,26.51
2022-08-22T14:35:40.656Z,25.36
2022-08-22T14:38:32.578Z,24.43
2022-08-22T14:41:05.180Z,24.04
2022-08-22T14:43:31.890Z,24.84
2022-08-22T14:46:10.109Z,25.26
2022-08-22T14:49:13.410Z,25.88
2022-08-22T14:51:46.181Z,25.24
2022-08-22T14:54:21.405Z,25.89
2022-08-22T14:56:49.531Z,26.95
2022-08-22T14:59:34.971Z,27.09
2022-08-22T15:02:15.841Z,26.84
2022-08-22T15:04:46.032Z,28.29
2022-08-22T15:07:21.676Z,28.36
2022-08-22T15:10:06.135Z,28.58
2022-08-22T15:12:37.776Z,28.67
2022-08-22T15:15:26.064Z,28.60
2022-08-22T15:17:53.044Z,29.25
2022-08-22T15:20:28.562Z,29.79
2022-08-22T15:23:10.139Z,30.01
2022-08-22T15:25:40.961Z,29.87
2022-08-22T15:28:17.200Z,29.57
2022-08-22T15:30:58.633Z,29.21
2022-08-22T15:33:45.437Z,29.59
2022-08-22T15:36:18.712Z,30.17
2022-08-22T15:38:50.681Z,30.29
2022-08-22T15:41:37.026Z,30.33
2022-08-22T15:44:31.104Z,30.29
2022-08-22T15:47:10.848Z,29.59
2022-08-22T15:49:52.403Z,28.82
2022-08-22T15:52:27.050Z,27.74
2022-08-22T15:54:53.757Z,27.55
2022-08-22T15:57:31.754Z,27.88
2022-08-22T16:00:04.716Z,28.60
2022-08-22T16:02:53.417Z,28.24
2022-08-22T16:05:26.205Z,27.48
2022-08-22T16:07:58.512Z,26.92
2022-08-22T16:10:24.971Z,26.86
2022-08-22T16:13:13.149Z,27.63
2022-08-22T16:15:51.498Z,28.19
2022-08-22T16:18:34.299Z,28.46
2022-08-22T16:21:02.518Z,29.01
2022-08-22T16:23:49.727Z,29.27
2022-08-22T16:26:31.622Z,29.41
2022-08-22T16:29:13.441Z,28.83
2022-08-22T16:31:43.872Z,28.11
2022-08-22T16:34:18.993Z,28.19
2022-08-22T16:36:54.617Z,28.25
2022-08-22T16:39:21.186Z,29.09
2022-08-22T16:41:54.198Z,29.79
2022-08-22T16:44:29.443Z,29.79
2022-08-22T16:47:16.269Z,30.50
2022-08-22T16:49:51.727Z,30.72
2022-08-22T16:52:24.477Z,30.94
2022-08-22T16:55:03.858Z,31.68
2022-08-22T16:58:06.150Z,31.68
2022-08-22T17:00:58.044Z,32.20
2022-08-22T17:03:36.952Z,32.11
2022-08-22T17:06:23.100Z,32.47
2022-08-22T17:09:17.329Z,32.66
2022-08-22T17:12:20.888Z,33.16
2022-08-22T17:15:05.557Z,33.00
2022-08-22T17:17:53.512Z,33.26
2022-08-22T17:20:57.752Z,33.63
2022-08-22T17:23:48.672Z,33.70
2022-08-22T17:26:28.964Z,34.01
2022-08-22T17:29:24.608Z,34.06
2022-08-22T17:32:17.991Z,34.41
2022-08-22T17:34:56.890Z,34.91
2022-08-22T17:37:48.741Z,34.84
2022-08-22T17:40:24.234Z,34.72
2022-08-22T17:42:59.691Z,34.79
2022-08-22T17:45:47.961Z,34.83
2022-08-22T17:48:24.738Z,38.38
2022-08-22T17:50:57.072Z,38.34
2022-08-22T17:53:36.109Z,37.60
2022-08-22T17:56:27.944Z,38.59
2022-08-22T17:59:03.928Z,39.83
2022-08-22T18:01:46.739Z,40.06
2022-08-22T18:04:26.996Z,40.39
2022-08-22T18:07:18.403Z,40.72
2022-08-22T18:09:52.029Z,42.13
2022-08-22T18:12:34.335Z,42.79
2022-08-22T18:15:20.034Z,43.08
2022-08-22T18:17:56.859Z,44.08
2022-08-22T18:20:38.429Z,44.06
2022-08-22T18:23:38.976Z,44.50
2022-08-22T18:26:15.855Z,45.53
2022-08-22T18:29:14.831Z,46.40
2022-08-22T18:32:08.611Z,47.47
2022-08-22T18:34:59.797Z,46.05
2022-08-22T18:37:35.573Z,47.61
2022-08-22T18:40:11.117Z,46.90
2022-08-22T18:43:13.368Z,48.18
2022-08-22T18:45:45.678Z,48.16
2022-08-22T18:49:11.641Z,48.67
2022-08-22T18:51:38.238Z,49.40
2022-08-22T18:54:05.163Z,48.73
2022-08-22T18:56:31.554Z,49.18
2022-08-22T18:59:12.917Z,49.80
2022-08-22T19:01:44.856Z,50.90
2022-08-22T19:04:52.542Z,50.49
2022-08-22T19:07:37.613Z,51.47
2022-08-22T19:10:10.124Z,52.21
2022-08-22T19:13:07.145Z,52.32
2022-08-22T19:15:54.377Z,53.77
2022-08-22T19:18:42.945Z,53.62
2022-08-22T19:21:41.146Z,53.54
2022-08-22T19:24:12.641Z,53.55
2022-08-22T19:26:42.843Z,53.50
2022-08-22T19:29:18.213Z,52.82
2022-08-22T19:31:50.339Z,52.87
2022-08-22T19:34:21.959Z,52.39
2022-08-22T19:37:08.301Z,52.57
2022-08-22T19:39:41.967Z,52.49
2022-08-22T19:42:30.799Z,52.79
2022-08-22T19:45:18.922Z,53.26
2022-08-22T19:48:14.604Z,52.69
2022-08-22T19:50:43.056Z,53.62
2022-08-22T19:53:32.437Z,54.45
2022-08-22T19:56:07.220Z,54.99
2022-08-22T19:59:17.185Z,54.85
2022-08-22T20:01:57.953Z,55.51
2022-08-22T20:04:39.406Z,56.06
2022-08-22T20:07:14.860Z,56.08
2022-08-22T20:10:14.566Z,56.88
2022-08-22T20:13:05.038Z,56.87
2022-08-22T20:15:35.989Z,56.97
2022-08-22T20:18:11.919Z,57.32
2022-08-22T20:20:56.583Z,57.84
2022-08-22T20:23:29.493Z,57.66
2022-08-22T20:25:57.069Z,56.97
2022-08-22T20:28:50.728Z,57.36
2022-08-22T20:31:24.424Z,58.06
2022-08-22T20:33:57.189Z,57.97
2022-08-22T20:36:28.142Z,57.04
2022-08-22T20:39:00.188Z,57.75
2022-08-22T20:41:38.525Z,57.99
2022-08-22T20:44:05.127Z,57.72
2022-08-22T20:46:55.743Z,56.94
2022-08-22T20:49:28.389Z,57.49
2022-08-22T20:52:00.512Z,58.43
2022-08-22T20:54:33.817Z,59.51
2022-08-22T20:57:15.899Z,59.78
2022-08-22T20:59:51.750Z,60.67
2022-08-22T21:02:27.315Z,60.68
2022-08-22T21:05:03.042Z,60.99
2022-08-22T21:07:35.126Z,60.56
2022-08-22T21:10:33.571Z,60.15
2022-08-22T21:13:01.044Z,59.48
2022-08-22T21:15:32.328Z,60.80
2022-08-22T21:17:59.039Z,61.65
2022-08-22T21:20:31.742Z,62.81
2022-08-22T21:23:04.049Z,61.90
2022-08-22T21:25:31.721Z,62.21
2022-08-22T21:28:00.612Z,63.50
2022-08-22T21:30:28.364Z,63.54
2022-08-22T21:32:56.384Z,63.51
2022-08-22T21:35:29.533Z,63.71
2022-08-22T21:37:57.441Z,63.88
2022-08-22T21:40:29.692Z,64.70
2022-08-22T21:42:59.362Z,64.38
2022-08-22T21:45:33.461Z,64.02
2022-08-22T21:48:00.476Z,63.69
2022-08-22T21:50:37.914Z,64.67
2022-08-22T21:53:09.142Z,64.87
2022-08-22T21:55:43.002Z,64.47
2022-08-22T21:58:36.124Z,64.46
2022-08-22T22:01:27.961Z,64.16
2022-08-22T22:03:55.005Z,64.33
2022-08-22T22:06:21.474Z,64.98
2022-08-22T22:08:48.824Z,64.68
2022-08-22T22:11:16.120Z,65.00
2022-08-22T22:13:44.221Z,65.53
2022-08-22T22:16:14.612Z,65.14
2022-08-22T22:18:41.168Z,65.16
2022-08-22T22:21:08.511Z,65.75
2022-08-22T22:23:35.153Z,65.71
2022-08-22T22:26:03.945Z,65.76
2022-08-22T22:28:38.848Z,65.12
2022-08-22T22:31:05.590Z,64.96
2022-08-22T22:33:36.402Z,67.06
2022-08-22T22:36:06.809Z,67.59
2022-08-22T22:38:33.648Z,67.69
2022-08-22T22:41:00.195Z,68.55
2022-08-22T22:43:27.463Z,69.06
2022-08-22T22:45:53.977Z,70.19
2022-08-22T22:48:24.158Z,70.13
2022-08-22T22:50:52.600Z,70.54
2022-08-22T22:53:21.436Z,70.86
2022-08-22T22:56:00.734Z,70.38
2022-08-22T22:58:28.316Z,69.58
2022-08-22T23:00:55.799Z,70.65
2022-08-22T23:03:22.644Z,71.12
2022-08-22T23:05:49.134Z,71.04
2022-08-22T23:08:15.625Z,71.17
2022-08-22T23:10:42.112Z,70.63
2022-08-22T23:13:08.798Z,70.95
2022-08-22T23:15:36.989Z,70.62
2022-08-22T23:18:03.506Z,72.33
2022-08-22T23:20:30.013Z,73.47
2022-08-22T23:22:56.542Z,73.46
2022-08-22T23:25:23.056Z,74.60
2022-08-22T23:27:52.311Z,73.96
2022-08-22T23:30:19.584Z,74.35
2022-08-22T23:32:46.120Z,74.98
2022-08-22T23:35:12.674Z,75.37
2022-08-22T23:37:39.249Z,75.58
2022-08-22T23:40:08.459Z,75.71
2022-08-22T23:42:35.394Z,75.59
2022-08-22T23:45:01.998Z,76.21
2022-08-22T23:47:28.502Z,75.98
2022-08-22T23:49:54.950Z,75.39
2022-08-22T23:52:21.467Z,75.71
2022-08-22T23:54:48.052Z,75.33
2022-08-22T23:57:20.941Z,74.99
2022-08-22T23:59:57.324Z,74.03
